createdAt,value
2022-12-19T00:01:09.162Z,56.80
2022-12-19T00:06:05.680Z,51.08
2022-12-19T00:11:00.354Z,50.10
2022-12-19T00:15:53.206Z,55.90
2022-12-19T00:20:46.662Z,44.20
2022-12-19T00:25:40.784Z,46.70
2022-12-19T00:30:35.365Z,42.97
2022-12-19T00:35:28.838Z,44.15
2022-12-19T00:40:21.049Z,42.27
2022-12-19T00:45:17.062Z,43.60
2022-12-19T00:50:12.040Z,46.97
2022-12-19T00:55:05.257Z,40.33
2022-12-19T01:00:11.719Z,37.25
2022-12-19T01:05:05.391Z,36.13
2022-12-19T01:10:03.506Z,38.67
2022-12-19T01:15:04.640Z,35.20
2022-12-19T01:20:04.246Z,36.95
2022-12-19T01:24:57.029Z,31.55
2022-12-19T01:29:53.164Z,32.40
2022-12-19T01:34:45.520Z,34.00
2022-12-19T01:39:39.362Z,31.27
2022-12-19T01:44:35.182Z,31.30
2022-12-19T01:49:36.502Z,31.45
2022-12-19T01:54:36.074Z,31.35
2022-12-19T01:59:56.667Z,32.25
2022-12-19T02:04:48.978Z,30.08
2022-12-19T02:09:42.360Z,32.63
2022-12-19T02:14:36.344Z,34.15
2022-12-19T02:19:50.564Z,33.22
2022-12-19T02:25:19.648Z,33.30
2022-12-19T02:30:18.746Z,33.20
2022-12-19T02:35:20.378Z,34.67
2022-12-19T02:40:40.489Z,28.08
2022-12-19T02:45:38.917Z,29.15
2022-12-19T02:50:58.365Z,30.20
2022-12-19T02:56:30.158Z,29.92
2022-12-19T03:01:37.305Z,29.10
2022-12-19T03:06:37.258Z,28.83
2022-12-19T03:11:34.652Z,26.75
2022-12-19T03:16:36.615Z,28.83
2022-12-19T03:22:00.094Z,27.52
2022-12-19T03:27:17.534Z,27.05
2022-12-19T03:32:15.754Z,27.52
2022-12-19T03:37:13.626Z,29.05
2022-12-19T03:42:26.867Z,28.20
2022-12-19T03:47:34.609Z,27.95
2022-12-19T03:52:33.870Z,31.33
2022-12-19T03:57:34.314Z,31.38
2022-12-19T04:02:29.190Z,32.63
2022-12-19T04:07:22.979Z,29.17
2022-12-19T04:12:27.299Z,26.80
2022-12-19T04:17:23.144Z,26.13
2022-12-19T04:22:26.692Z,25.42
2022-12-19T04:27:21.320Z,24.80
2022-12-19T04:32:15.788Z,26.70
2022-12-19T04:37:09.824Z,29.58
2022-12-19T04:46:56.215Z,29.13
2022-12-19T04:51:49.320Z,27.38
2022-12-19T04:56:42.540Z,28.37
2022-12-19T05:01:35.855Z,30.05
2022-12-19T05:06:28.164Z,28.25
2022-12-19T05:11:21.264Z,29.08
2022-12-19T05:16:16.168Z,27.02
2022-12-19T05:21:08.435Z,26.80
2022-12-19T05:26:02.794Z,27.27
2022-12-19T05:31:09.231Z,26.83
2022-12-19T05:36:02.496Z,26.77
2022-12-19T05:40:56.221Z,25.65
2022-12-19T05:45:48.464Z,27.65
2022-12-19T05:50:41.479Z,26.77
2022-12-19T05:55:34.425Z,27.90
2022-12-19T06:00:27.967Z,28.02
2022-12-19T06:05:22.064Z,29.48
2022-12-19T06:10:15.505Z,30.98
2022-12-19T06:15:11.898Z,29.55
2022-12-19T06:20:06.703Z,29.52
2022-12-19T06:25:00.755Z,27.92
2022-12-19T06:29:55.067Z,27.20
2022-12-19T06:35:03.675Z,29.55
2022-12-19T06:39:58.842Z,29.67
2022-12-19T06:44:53.004Z,29.40
2022-12-19T06:49:48.970Z,31.85
2022-12-19T06:54:41.709Z,29.77
2022-12-19T06:59:34.531Z,29.38
2022-12-19T07:04:36.384Z,30.33
2022-12-19T07:09:31.520Z,30.17
2022-12-19T07:14:24.678Z,30.50
2022-12-19T07:19:18.068Z,33.92
2022-12-19T07:24:13.233Z,32.63
2022-12-19T07:29:08.350Z,30.70
2022-12-19T07:34:01.270Z,31.30
2022-12-19T07:38:54.476Z,30.55
2022-12-19T07:43:48.522Z,30.70
2022-12-19T07:48:42.467Z,32.70
2022-12-19T07:53:36.711Z,30.35
2022-12-19T07:58:31.896Z,30.23
2022-12-19T08:03:25.635Z,33.58
2022-12-19T08:08:18.532Z,33.08
2022-12-19T08:13:11.618Z,32.40
2022-12-19T08:18:05.062Z,33.03
2022-12-19T08:22:58.928Z,32.60
2022-12-19T08:27:51.622Z,31.10
2022-12-19T08:32:45.698Z,33.13
2022-12-19T08:37:38.735Z,33.03
2022-12-19T08:47:27.552Z,34.50
2022-12-19T08:52:21.020Z,36.35
2022-12-19T08:57:14.511Z,34.13
2022-12-19T09:07:00.922Z,33.97
2022-12-19T09:11:54.520Z,32.90
2022-12-19T09:16:48.973Z,30.20
2022-12-19T09:21:42.615Z,29.50
2022-12-19T09:26:37.577Z,30.83
2022-12-19T09:31:31.086Z,29.30
2022-12-19T09:36:25.104Z,32.60
2022-12-19T09:46:45.062Z,29.90
2022-12-19T09:51:47.500Z,29.55
2022-12-19T09:56:46.265Z,31.35
2022-12-19T10:01:59.207Z,31.00
2022-12-19T10:07:22.189Z,31.80
2022-12-19T10:12:45.620Z,28.70
2022-12-19T10:18:07.778Z,31.00
2022-12-19T10:23:32.414Z,30.85
2022-12-19T10:28:29.603Z,31.90
2022-12-19T10:33:41.141Z,29.00
2022-12-19T10:39:03.303Z,31.67
2022-12-19T10:44:10.232Z,32.00
2022-12-19T10:49:11.899Z,29.92
2022-12-19T10:54:05.766Z,31.23
2022-12-19T10:59:00.574Z,30.65
2022-12-19T11:04:25.099Z,30.98
2022-12-19T11:09:19.266Z,30.33
2022-12-19T11:29:25.025Z,25.88
2022-12-19T11:30:09.924Z,26.03
2022-12-19T11:35:51.910Z,26.60
2022-12-19T11:40:49.420Z,26.45
2022-12-19T11:45:50.861Z,27.13
2022-12-19T11:51:02.440Z,25.45
2022-12-19T11:56:16.127Z,27.08
2022-12-19T12:01:24.809Z,26.77
2022-12-19T12:06:18.683Z,28.92
2022-12-19T12:18:11.894Z,27.25
2022-12-19T12:31:17.510Z,27.40
2022-12-19T12:31:28.730Z,28.02
2022-12-19T12:32:03.188Z,27.95
2022-12-19T12:35:52.126Z,28.67
2022-12-19T12:40:08.039Z,26.15
2022-12-19T12:45:04.062Z,26.80
2022-12-19T12:50:09.121Z,26.33
2022-12-19T12:55:05.664Z,28.92
2022-12-19T13:00:21.245Z,31.00
2022-12-19T13:05:30.182Z,27.98
2022-12-19T13:10:31.405Z,28.83
2022-12-19T13:15:36.947Z,27.33
2022-12-19T13:20:30.331Z,30.55
2022-12-19T13:25:35.473Z,32.92
2022-12-19T13:30:54.253Z,29.60
2022-12-19T13:38:05.436Z,29.35
2022-12-19T13:46:05.928Z,27.58
2022-12-19T13:51:01.099Z,28.10
2022-12-19T13:56:08.998Z,27.52
2022-12-19T14:01:07.182Z,29.08
2022-12-19T14:06:29.476Z,27.27
2022-12-19T14:11:44.046Z,24.98
2022-12-19T14:16:44.079Z,27.70
2022-12-19T14:22:06.143Z,28.80
2022-12-19T14:28:24.404Z,27.23
2022-12-19T14:33:44.637Z,27.80
2022-12-19T14:39:27.870Z,30.13
2022-12-19T14:44:00.006Z,29.77
2022-12-19T14:54:17.515Z,31.77
2022-12-19T14:56:16.019Z,31.40
2022-12-19T15:01:10.640Z,30.00
2022-12-19T15:07:05.526Z,32.63
2022-12-19T15:13:14.099Z,32.33
2022-12-19T15:17:22.978Z,31.50
2022-12-19T15:22:16.259Z,29.52
2022-12-19T15:27:15.744Z,31.42
2022-12-19T15:32:16.166Z,29.48
2022-12-19T15:37:11.022Z,30.60
2022-12-19T15:42:05.442Z,30.85
2022-12-19T15:46:58.322Z,34.13
2022-12-19T15:51:51.155Z,31.88
2022-12-19T15:56:50.288Z,34.60
2022-12-19T16:01:44.766Z,30.38
2022-12-19T16:06:38.309Z,30.92
2022-12-19T16:11:31.620Z,31.17
2022-12-19T16:21:34.086Z,30.83
2022-12-19T16:26:40.435Z,28.90
2022-12-19T16:31:33.774Z,31.60
2022-12-19T16:36:27.461Z,32.78
2022-12-19T16:41:23.349Z,32.38
2022-12-19T16:46:21.514Z,31.00
2022-12-19T16:51:40.846Z,31.58
2022-12-19T16:56:35.864Z,33.60
2022-12-19T17:01:29.899Z,34.33
2022-12-19T17:11:26.265Z,33.88
2022-12-19T17:21:21.392Z,37.30
2022-12-19T17:26:18.201Z,39.20
2022-12-19T17:31:21.591Z,43.53
2022-12-19T17:36:18.427Z,44.80
2022-12-19T17:41:17.642Z,43.25
2022-12-19T17:46:29.595Z,44.03
2022-12-19T17:51:23.036Z,46.35
2022-12-19T17:56:19.052Z,47.33
2022-12-19T18:01:35.399Z,45.22
2022-12-19T18:06:28.056Z,48.72
2022-12-19T18:11:26.022Z,48.97
2022-12-19T18:16:21.351Z,43.42
2022-12-19T18:21:25.000Z,44.85
2022-12-19T18:26:18.652Z,44.00
2022-12-19T18:31:30.773Z,45.05
2022-12-19T18:36:29.976Z,44.22
2022-12-19T18:41:24.681Z,43.05
2022-12-19T18:46:28.610Z,42.65
2022-12-19T18:51:23.115Z,43.72
2022-12-19T18:56:16.992Z,42.53
2022-12-19T19:01:23.554Z,41.08
2022-12-19T19:06:22.830Z,43.40
2022-12-19T19:11:15.571Z,40.63
2022-12-19T19:16:27.885Z,46.97
2022-12-19T19:21:23.479Z,46.22
2022-12-19T19:26:16.776Z,49.72
2022-12-19T19:31:11.859Z,47.45
2022-12-19T19:36:19.771Z,45.40
2022-12-19T19:41:13.568Z,44.63
2022-12-19T19:46:06.823Z,46.88
2022-12-19T19:51:00.636Z,45.13
2022-12-19T19:56:05.238Z,46.10
2022-12-19T20:00:58.779Z,48.40
2022-12-19T20:06:01.692Z,48.03
2022-12-19T20:10:56.217Z,45.78
2022-12-19T20:15:50.095Z,45.78
2022-12-19T20:20:43.433Z,49.58
2022-12-19T20:25:40.276Z,45.95
2022-12-19T20:30:32.852Z,46.38
2022-12-19T20:35:29.054Z,45.45
2022-12-19T20:40:23.992Z,44.17
2022-12-19T20:45:18.505Z,41.63
2022-12-19T20:50:13.256Z,42.30
2022-12-19T20:55:10.210Z,45.22
2022-12-19T21:00:06.068Z,45.05
2022-12-19T21:05:00.293Z,42.88
2022-12-19T21:09:54.693Z,42.00
2022-12-19T21:19:40.253Z,41.10
2022-12-19T21:24:34.060Z,43.33
2022-12-19T21:29:26.701Z,42.63
2022-12-19T21:34:20.751Z,44.05
2022-12-19T21:39:13.158Z,42.40
2022-12-19T21:44:07.214Z,45.47
2022-12-19T21:49:00.721Z,42.30
2022-12-19T21:53:55.588Z,42.38
2022-12-19T21:58:49.322Z,43.03
2022-12-19T22:03:42.666Z,43.53
2022-12-19T22:08:36.492Z,42.23
2022-12-19T22:13:30.296Z,41.80
2022-12-19T22:18:24.057Z,41.83
2022-12-19T22:23:16.764Z,44.90
2022-12-19T22:28:10.929Z,43.72
2022-12-19T22:33:05.352Z,43.10
2022-12-19T22:37:59.731Z,42.88
2022-12-19T22:42:52.209Z,40.58
2022-12-19T22:47:46.286Z,37.47
2022-12-19T22:52:39.818Z,38.47
2022-12-19T22:57:33.585Z,39.63
2022-12-19T23:07:20.751Z,36.72
2022-12-19T23:12:13.998Z,39.97
2022-12-19T23:17:08.005Z,39.67
2022-12-19T23:22:01.560Z,39.65
2022-12-19T23:26:55.698Z,40.42
2022-12-19T23:31:48.764Z,37.85
2022-12-19T23:41:55.179Z,39.17
2022-12-19T23:51:41.947Z,38.03
